createdAt,value
2018-04-23T00:01:41.357Z,100344.28
2018-04-23T00:04:10.457Z,100344.89
2018-04-23T00:06:39.589Z,100335.53
2018-04-23T00:09:08.692Z,100342.68
2018-04-23T00:11:37.800Z,100336.39
2018-04-23T00:14:06.913Z,100333.28
2018-04-23T00:16:36.043Z,100337.16
2018-04-23T00:19:05.160Z,100331.39
2018-04-23T00:21:35.149Z,100337.98
2018-04-23T00:24:04.277Z,100333.20
2018-04-23T00:26:34.144Z,100331.94
2018-04-23T00:29:03.454Z,100339.78
2018-04-23T00:31:32.568Z,100331.66
2018-04-23T00:34:02.282Z,100332.19
2018-04-23T00:36:32.184Z,100331.21
2018-04-23T00:39:01.285Z,100332.47
2018-04-23T00:41:30.403Z,100337.08
2018-04-23T00:43:59.532Z,100332.14
2018-04-23T00:46:28.644Z,100333.65
2018-04-23T00:48:57.753Z,100330.51
2018-04-23T00:51:26.893Z,100335.48
2018-04-23T00:53:57.460Z,100338.12
2018-04-23T00:56:26.577Z,100332.53
2018-04-23T00:58:56.218Z,100330.47
2018-04-23T01:01:26.105Z,100335.50
2018-04-23T01:03:55.210Z,100338.67
2018-04-23T01:06:25.825Z,100340.37
2018-04-23T01:08:54.948Z,100334.59
2018-04-23T01:11:24.835Z,100334.12
2018-04-23T01:13:54.717Z,100333.52
2018-04-23T01:16:23.869Z,100331.96
2018-04-23T01:18:53.733Z,100337.75
2018-04-23T01:21:22.854Z,100340.66
2018-04-23T01:23:51.968Z,100345.20
2018-04-23T01:26:21.069Z,100349.56
2018-04-23T01:28:50.184Z,100352.52
2018-04-23T01:31:19.327Z,100357.22
2018-04-23T01:33:48.469Z,100359.00
2018-04-23T01:36:18.364Z,100357.16
2018-04-23T01:38:47.484Z,100355.13
2018-04-23T01:41:17.346Z,100358.61
2018-04-23T01:43:46.444Z,100357.72
2018-04-23T01:46:15.570Z,100360.25
2018-04-23T01:48:46.187Z,100363.13
2018-04-23T01:51:15.327Z,100362.13
2018-04-23T01:53:45.189Z,100365.00
2018-04-23T01:56:14.297Z,100374.47
2018-04-23T01:58:43.405Z,100374.36
2018-04-23T02:01:13.324Z,100373.70
2018-04-23T02:03:43.460Z,100371.86
2018-04-23T02:06:12.578Z,100375.24
2018-04-23T02:08:41.794Z,100381.91
2018-04-23T02:11:10.915Z,100373.75
2018-04-23T02:13:40.021Z,100376.45
2018-04-23T02:16:09.155Z,100376.81
2018-04-23T02:18:39.038Z,100371.67
2018-04-23T02:21:08.182Z,100382.73
2018-04-23T02:23:37.514Z,100370.28
2018-04-23T02:26:06.627Z,100375.41
2018-04-23T02:28:35.749Z,100380.63
2018-04-23T02:31:05.608Z,100376.20
2018-04-23T02:33:35.641Z,100371.77
2018-04-23T02:36:04.735Z,100372.80
2018-04-23T02:38:33.845Z,100375.52
2018-04-23T02:41:02.959Z,100376.30
2018-04-23T02:43:32.101Z,100369.42
2018-04-23T02:46:01.199Z,100371.11
2018-04-23T02:48:30.306Z,100370.98
2018-04-23T02:50:59.437Z,100367.44
2018-04-23T02:53:28.537Z,100376.03
2018-04-23T02:55:57.665Z,100368.39
2018-04-23T02:58:27.032Z,100364.66
2018-04-23T03:00:56.183Z,100361.57
2018-04-23T03:03:25.275Z,100365.00
2018-04-23T03:05:54.399Z,100365.97
2018-04-23T03:08:23.500Z,100364.88
2018-04-23T03:10:52.612Z,100370.17
2018-04-23T03:13:21.705Z,100366.63
2018-04-23T03:15:50.841Z,100362.50
2018-04-23T03:18:19.953Z,100364.09
2018-04-23T03:20:49.063Z,100366.77
2018-04-23T03:23:18.232Z,100363.19
2018-04-23T03:25:48.116Z,100366.05
2018-04-23T03:28:17.984Z,100369.98
2018-04-23T03:30:47.173Z,100368.49
2018-04-23T03:33:16.301Z,100363.64
2018-04-23T03:35:45.444Z,100365.92
2018-04-23T03:38:15.340Z,100364.01
2018-04-23T03:40:44.447Z,100364.59
2018-04-23T03:43:13.560Z,100369.37
2018-04-23T03:45:42.725Z,100369.94
2018-04-23T03:48:12.618Z,100372.28
2018-04-23T03:50:42.024Z,100374.40
2018-04-23T03:53:11.175Z,100371.73
2018-04-23T03:55:41.033Z,100372.10
2018-04-23T03:58:10.149Z,100363.86
2018-04-23T04:00:39.261Z,100367.62
2018-04-23T04:03:09.184Z,100367.02
2018-04-23T04:05:39.077Z,100368.23
2018-04-23T04:08:08.765Z,100371.05
2018-04-23T04:10:37.918Z,100369.55
2018-04-23T04:13:25.301Z,100365.27
2018-04-23T04:16:12.009Z,100366.58
2018-04-23T04:18:46.887Z,100364.41
2018-04-23T04:21:16.016Z,100369.73
2018-04-23T04:23:45.486Z,100369.75
2018-04-23T04:26:14.583Z,100367.89
2018-04-23T04:28:43.767Z,100372.37
2018-04-23T04:31:13.907Z,100374.05
2018-04-23T04:33:43.033Z,100374.80
2018-04-23T04:36:13.871Z,100378.36
2018-04-23T04:38:42.996Z,100375.35
2018-04-23T04:41:12.964Z,100376.94
2018-04-23T04:43:42.087Z,100373.72
2018-04-23T04:46:11.182Z,100374.80
2018-04-23T04:48:40.333Z,100375.66
2018-04-23T04:51:10.457Z,100377.83
2018-04-23T04:53:39.586Z,100373.21
2018-04-23T04:56:09.459Z,100376.70
2018-04-23T04:58:38.624Z,100373.59
2018-04-23T05:01:07.737Z,100371.21
2018-04-23T05:03:37.940Z,100376.08
2018-04-23T05:06:07.071Z,100376.47
2018-04-23T05:08:36.919Z,100381.48
2018-04-23T05:11:06.041Z,100381.82
2018-04-23T05:13:35.393Z,100381.75
2018-04-23T05:16:04.512Z,100384.28
2018-04-23T05:18:33.608Z,100378.22
2018-04-23T05:21:02.727Z,100381.03
2018-04-23T05:23:31.953Z,100382.38
2018-04-23T05:26:01.844Z,100387.83
2018-04-23T05:28:31.000Z,100385.21
2018-04-23T05:31:00.104Z,100382.11
2018-04-23T05:33:29.257Z,100391.88
2018-04-23T05:35:58.372Z,100389.94
2018-04-23T05:38:27.504Z,100395.37
2018-04-23T05:40:56.604Z,100400.16
2018-04-23T05:43:26.527Z,100405.31
2018-04-23T05:45:55.617Z,100411.80
2018-04-23T05:48:24.737Z,100413.39
2018-04-23T05:50:53.857Z,100423.62
2018-04-23T05:53:23.750Z,100430.95
2018-04-23T05:55:52.852Z,100444.84
2018-04-23T05:58:21.968Z,100456.75
2018-04-23T06:00:51.836Z,100462.87
2018-04-23T06:03:20.950Z,100460.81
2018-04-23T06:05:50.074Z,100464.00
2018-04-23T06:08:19.982Z,100465.34
2018-04-23T06:10:49.112Z,100469.01
2018-04-23T06:13:18.205Z,100476.34
2018-04-23T06:15:47.325Z,100469.48
2018-04-23T06:18:17.328Z,100480.66
2018-04-23T06:20:46.444Z,100476.42
2018-04-23T06:23:15.559Z,100465.34
2018-04-23T06:25:44.674Z,100455.80
2018-04-23T06:28:13.795Z,100470.95
2018-04-23T06:30:42.988Z,100470.95
2018-04-23T06:33:12.837Z,100473.48
2018-04-23T06:35:41.967Z,100479.34
2018-04-23T06:38:11.081Z,100490.64
2018-04-23T06:40:40.964Z,100502.41
2018-04-23T06:43:11.079Z,100522.17
2018-04-23T06:45:40.196Z,100535.00
2018-04-23T06:48:09.317Z,100543.36
2018-04-23T06:50:38.424Z,100541.95
2018-04-23T06:53:07.549Z,100547.23
2018-04-23T06:55:36.650Z,100548.52
2018-04-23T06:58:05.765Z,100562.92
2018-04-23T07:00:35.197Z,100562.20
2018-04-23T07:03:04.327Z,100560.69
2018-04-23T07:05:33.457Z,100568.21
2018-04-23T07:08:02.577Z,100571.81
2018-04-23T07:10:31.733Z,100575.07
2018-04-23T07:13:00.794Z,100581.61
2018-04-23T07:15:29.924Z,100572.87
2018-04-23T07:17:59.111Z,100567.22
2018-04-23T07:20:28.222Z,100567.34
2018-04-23T07:22:57.331Z,100571.59
2018-04-23T07:25:26.478Z,100572.19
2018-04-23T07:27:56.345Z,100569.77
2018-04-23T07:30:25.504Z,100577.11
2018-04-23T07:32:54.611Z,100576.70
2018-04-23T07:35:24.802Z,100584.60
2018-04-23T07:37:53.908Z,100589.84
2018-04-23T07:40:23.074Z,100597.74
2018-04-23T07:42:52.240Z,100606.47
2018-04-23T07:45:22.176Z,100609.22
2018-04-23T07:47:51.318Z,100605.21
2018-04-23T07:50:20.430Z,100613.70
2018-04-23T08:05:41.900Z,100631.44
2018-04-23T08:08:13.028Z,100628.98
2018-04-23T08:10:42.138Z,100634.20
2018-04-23T08:13:13.300Z,100628.56
2018-04-23T08:15:43.170Z,100631.67
2018-04-23T08:18:12.984Z,100641.23
2018-04-23T08:20:42.128Z,100650.56
2018-04-23T08:23:11.234Z,100652.02
2018-04-23T08:25:40.454Z,100653.10
2018-04-23T08:28:09.748Z,100650.50
2018-04-23T08:30:38.961Z,100650.56
2018-04-23T08:33:08.095Z,100647.20
2018-04-23T08:35:37.992Z,100643.35
2018-04-23T08:38:07.099Z,100646.80
2018-04-23T08:40:37.007Z,100644.69
2018-04-23T08:43:06.191Z,100630.99
2018-04-23T08:45:35.391Z,100634.06
2018-04-23T08:48:04.490Z,100639.30
2018-04-23T08:50:34.309Z,100653.53
2018-04-23T08:53:03.452Z,100650.61
2018-04-23T08:55:32.606Z,100646.52
2018-04-23T08:58:01.719Z,100656.71
2018-04-23T09:00:31.616Z,100657.86
2018-04-23T09:03:00.753Z,100657.83
2018-04-23T09:05:29.839Z,100654.98
2018-04-23T09:07:58.985Z,100651.23
2018-04-23T09:10:28.103Z,100651.20
2018-04-23T09:12:57.247Z,100645.06
2018-04-23T09:15:26.352Z,100644.81
2018-04-23T09:17:56.286Z,100655.38
2018-04-23T09:20:26.151Z,100654.45
2018-04-23T09:22:56.006Z,100645.16
2018-04-23T09:25:25.659Z,100648.84
2018-04-23T09:27:55.527Z,100646.52
2018-04-23T09:30:24.653Z,100650.95
2018-04-23T09:32:53.749Z,100646.73
2018-04-23T09:35:22.894Z,100647.45
2018-04-23T09:37:52.082Z,100646.50
2018-04-23T09:40:21.254Z,100642.98
2018-04-23T09:42:50.351Z,100638.63
2018-04-23T09:45:20.246Z,100641.00
2018-04-23T09:47:49.383Z,100642.00
2018-04-23T09:50:18.511Z,100644.77
2018-04-23T09:52:47.619Z,100650.11
2018-04-23T09:55:16.765Z,100638.16
2018-04-23T09:57:46.657Z,100638.23
2018-04-23T10:13:36.388Z,100645.66
2018-04-23T10:16:05.519Z,100653.55
2018-04-23T10:18:34.640Z,100648.97
2018-04-23T10:21:04.613Z,100646.33
2018-04-23T10:23:33.671Z,100650.94
2018-04-23T10:26:02.801Z,100649.80
2018-04-23T10:28:31.957Z,100653.16
2018-04-23T10:31:01.066Z,100654.52
2018-04-23T10:33:30.202Z,100654.91
2018-04-23T10:35:59.331Z,100656.88
2018-04-23T10:38:28.785Z,100656.84
2018-04-23T10:40:57.911Z,100654.87
2018-04-23T10:43:27.033Z,100661.00
2018-04-23T10:45:56.152Z,100651.91
2018-04-23T10:48:25.296Z,100652.20
2018-04-23T10:50:54.391Z,100652.38
2018-04-23T10:53:24.291Z,100657.05
2018-04-23T10:55:53.393Z,100652.61
2018-04-23T10:58:22.502Z,100661.07
2018-04-23T11:00:51.635Z,100656.65
2018-04-23T11:03:21.527Z,100656.88
2018-04-23T11:05:51.416Z,100651.73
2018-04-23T11:08:20.531Z,100651.31
2018-04-23T11:10:50.415Z,100653.47
2018-04-23T11:13:19.529Z,100651.59
2018-04-23T11:15:48.679Z,100647.27
2018-04-23T11:18:17.808Z,100647.47
2018-04-23T11:20:47.719Z,100646.59
2018-04-23T11:23:17.587Z,100647.63
2018-04-23T11:25:47.482Z,100650.84
2018-04-23T11:28:17.377Z,100651.05
2018-04-23T11:30:46.518Z,100653.11
2018-04-23T11:33:15.605Z,100650.14
2018-04-23T11:35:45.494Z,100654.28
2018-04-23T11:38:14.608Z,100651.58
2018-04-23T11:40:44.483Z,100645.78
2018-04-23T11:43:13.610Z,100652.61
2018-04-23T11:45:43.502Z,100650.58
2018-04-23T11:48:13.264Z,100650.25
2018-04-23T11:50:42.348Z,100649.11
2018-04-23T11:53:11.530Z,100648.18
2018-04-23T11:55:42.320Z,100639.59
2018-04-23T11:58:11.441Z,100648.53
2018-04-23T12:00:40.576Z,100639.95
2018-04-23T12:03:10.449Z,100645.09
2018-04-23T12:05:39.584Z,100632.73
2018-04-23T12:08:09.936Z,100637.36
2018-04-23T12:10:39.081Z,100627.03
2018-04-23T12:13:08.197Z,100620.91
2018-04-23T12:15:37.347Z,100628.38
2018-04-23T12:18:06.553Z,100624.49
2018-04-23T12:20:35.730Z,100621.95
2018-04-23T12:23:04.893Z,100619.30
2018-04-23T12:25:34.799Z,100627.53
2018-04-23T12:28:03.933Z,100628.58
2018-04-23T12:30:33.069Z,100624.45
2018-04-23T12:33:02.172Z,100628.98
2018-04-23T12:35:31.334Z,100624.47
2018-04-23T12:38:00.492Z,100623.69
2018-04-23T12:40:30.401Z,100613.39
2018-04-23T12:43:00.397Z,100616.59
2018-04-23T12:45:29.556Z,100624.47
2018-04-23T12:47:58.675Z,100609.47
2018-04-23T12:50:27.805Z,100622.73
2018-04-23T12:52:56.901Z,100610.27
2018-04-23T12:55:26.864Z,100612.53
2018-04-23T12:57:55.977Z,100607.20
2018-04-23T13:00:25.342Z,100602.42
2018-04-23T13:02:54.455Z,100590.94
2018-04-23T13:05:23.614Z,100582.13
2018-04-23T13:07:53.495Z,100575.12
2018-04-23T13:10:22.648Z,100586.98
2018-04-23T13:12:51.778Z,100567.11
2018-04-23T13:15:20.893Z,100567.99
2018-04-23T13:17:50.382Z,100556.89
2018-04-23T13:20:19.486Z,100555.28
2018-04-23T13:22:48.620Z,100554.20
2018-04-23T13:25:17.780Z,100540.33
2018-04-23T13:27:47.041Z,100535.34
2018-04-23T13:30:16.145Z,100537.02
2018-04-23T13:32:45.282Z,100546.10
2018-04-23T13:35:14.421Z,100532.20
2018-04-23T13:37:43.529Z,100549.93
2018-04-23T13:40:13.407Z,100528.73
2018-04-23T13:42:43.315Z,100536.26
2018-04-23T13:45:13.480Z,100525.88
2018-04-23T13:47:42.631Z,100520.59
2018-04-23T13:50:11.828Z,100528.46
2018-04-23T13:52:40.943Z,100527.84
2018-04-23T13:55:10.904Z,100526.37
2018-04-23T13:57:40.038Z,100525.44
2018-04-23T14:00:09.157Z,100522.30
2018-04-23T14:02:39.050Z,100519.12
2018-04-23T14:05:08.177Z,100510.81
2018-04-23T14:07:37.325Z,100515.34
2018-04-23T14:10:06.442Z,100518.87
2018-04-23T14:12:35.561Z,100503.95
2018-04-23T14:15:05.428Z,100508.41
2018-04-23T14:17:35.332Z,100509.44
2018-04-23T14:20:04.459Z,100495.31
2018-04-23T14:22:33.557Z,100503.81
2018-04-23T14:25:03.476Z,100499.55
2018-04-23T14:27:32.584Z,100493.89
2018-04-23T14:30:02.499Z,100489.98
2018-04-23T14:32:32.392Z,100485.68
2018-04-23T14:35:01.549Z,100482.90
2018-04-23T14:37:30.687Z,100491.58
2018-04-23T14:39:59.972Z,100490.27
2018-04-23T14:42:29.119Z,100492.33
2018-04-23T14:44:58.243Z,100507.09
2018-04-23T14:47:27.386Z,100506.17
2018-04-23T14:49:56.674Z,100505.88
2018-04-23T14:52:25.819Z,100515.77
2018-04-23T14:54:54.946Z,100513.13
2018-04-23T14:57:24.129Z,100515.21
2018-04-23T14:59:53.245Z,100516.28
2018-04-23T15:02:22.359Z,100521.33
2018-04-23T15:04:51.473Z,100524.20
2018-04-23T15:07:21.392Z,100516.92
2018-04-23T15:09:51.994Z,100521.87
2018-04-23T15:12:21.892Z,100528.28
2018-04-23T15:14:51.027Z,100520.33
2018-04-23T15:17:20.176Z,100531.23
2018-04-23T15:19:49.308Z,100530.97
2018-04-23T15:22:18.425Z,100534.77
2018-04-23T15:24:48.344Z,100551.28
2018-04-23T15:27:18.237Z,100550.47
2018-04-23T15:29:47.351Z,100552.02
2018-04-23T15:32:17.267Z,100564.05
2018-04-23T15:34:47.173Z,100563.30
2018-04-23T15:37:17.057Z,100575.38
2018-04-23T15:39:46.180Z,100586.46
2018-04-23T15:42:16.142Z,100587.43
2018-04-23T15:44:45.261Z,100597.24
2018-04-23T15:47:14.458Z,100602.64
2018-04-23T15:49:44.312Z,100607.23
2018-04-23T15:52:14.326Z,100604.51
2018-04-23T15:54:44.202Z,100606.55
2018-04-23T15:57:14.383Z,100594.84
2018-04-23T15:59:44.995Z,100604.78
2018-04-23T16:02:14.922Z,100606.42
2018-04-23T16:04:44.782Z,100605.28
2018-04-23T16:07:13.889Z,100605.58
2018-04-23T16:09:43.010Z,100602.27
2018-04-23T16:12:14.132Z,100606.83
2018-04-23T16:14:43.296Z,100603.76
2018-04-23T16:17:13.628Z,100601.13
2018-04-23T16:19:43.552Z,100596.77
2018-04-23T16:22:13.646Z,100597.83
2018-04-23T16:24:42.772Z,100589.03
2018-04-23T16:27:11.921Z,100593.89
2018-04-23T16:29:41.835Z,100586.03
2018-04-23T16:32:11.752Z,100583.92
2018-04-23T16:34:41.983Z,100585.05
2018-04-23T16:37:11.129Z,100588.83
2018-04-23T16:39:40.992Z,100579.16
2018-04-23T16:42:10.137Z,100582.69
2018-04-23T16:44:39.419Z,100583.83
2018-04-23T16:47:09.195Z,100584.11
2018-04-23T16:49:39.109Z,100593.77
2018-04-23T16:52:08.989Z,100591.16
2018-04-23T16:54:38.153Z,100589.69
2018-04-23T16:57:08.018Z,100584.58
2018-04-23T16:59:37.148Z,100595.65
2018-04-23T17:02:06.296Z,100601.68
2018-04-23T17:04:35.456Z,100602.99
2018-04-23T17:07:04.559Z,100615.12
2018-04-23T17:09:33.696Z,100614.50
2018-04-23T17:12:03.585Z,100616.31
2018-04-23T17:14:33.536Z,100625.68
2018-04-23T17:17:03.443Z,100626.06
2018-04-23T17:19:33.034Z,100623.99
2018-04-23T17:22:02.179Z,100632.77
2018-04-23T17:24:31.327Z,100639.68
2018-04-23T17:27:00.476Z,100631.52
2018-04-23T17:29:29.948Z,100641.05
2018-04-23T17:31:59.092Z,100645.48
2018-04-23T17:34:28.233Z,100645.67
2018-04-23T17:36:57.370Z,100644.70
2018-04-23T17:39:26.496Z,100651.44
2018-04-23T17:41:56.388Z,100648.00
2018-04-23T17:44:25.531Z,100646.19
2018-04-23T17:46:54.653Z,100642.89
2018-04-23T17:49:24.574Z,100641.44
2018-04-23T17:51:54.465Z,100637.61
2018-04-23T17:54:23.630Z,100643.70
2018-04-23T17:56:52.804Z,100649.50
2018-04-23T17:59:21.960Z,100649.19
2018-04-23T18:01:51.087Z,100652.08
2018-04-23T18:04:20.260Z,100652.30
2018-04-23T18:06:49.415Z,100664.26
2018-04-23T18:09:18.592Z,100668.92
2018-04-23T18:11:47.728Z,100672.42
2018-04-23T18:14:16.846Z,100673.98
2018-04-23T18:16:45.967Z,100677.80
2018-04-23T18:19:15.858Z,100673.45
2018-04-23T18:21:45.035Z,100677.83
2018-04-23T18:24:14.143Z,100673.63
2018-04-23T18:26:43.295Z,100663.26
2018-04-23T18:29:12.446Z,100668.86
2018-04-23T18:31:43.092Z,100674.39
2018-04-23T18:34:14.276Z,100676.55
2018-04-23T18:36:43.416Z,100682.69
2018-04-23T18:39:13.786Z,100680.31
2018-04-23T18:41:42.904Z,100696.12
2018-04-23T18:44:12.020Z,100689.30
2018-04-23T18:59:41.690Z,100704.11
2018-04-23T19:02:10.791Z,100715.55
2018-04-23T19:04:39.934Z,100715.61
2018-04-23T19:07:09.100Z,100720.52
2018-04-23T19:09:38.216Z,100721.02
2018-04-23T19:12:07.358Z,100727.19
2018-04-23T19:14:36.554Z,100724.27
2018-04-23T19:17:05.742Z,100730.64
2018-04-23T19:19:35.660Z,100730.00
2018-04-23T19:22:05.594Z,100723.95
2018-04-23T19:24:34.750Z,100725.48
2018-04-23T19:27:04.698Z,100734.02
2018-04-23T19:29:33.835Z,100737.99
2018-04-23T19:32:02.994Z,100738.50
2018-04-23T19:34:32.151Z,100740.38
2018-04-23T19:37:01.318Z,100745.34
2018-04-23T19:39:30.472Z,100742.17
2018-04-23T19:41:59.611Z,100739.13
2018-04-23T19:44:28.761Z,100743.89
2018-04-23T19:46:57.933Z,100739.71
2018-04-23T19:49:27.880Z,100744.08
2018-04-23T19:51:57.050Z,100752.40
2018-04-23T19:54:26.200Z,100747.64
2018-04-23T19:56:56.120Z,100753.78
2018-04-23T19:59:25.340Z,100757.87
2018-04-23T20:01:55.216Z,100757.53
2018-04-23T20:04:25.114Z,100761.10
2018-04-23T20:06:54.396Z,100761.73
2018-04-23T20:09:23.494Z,100761.50
2018-04-23T20:11:52.673Z,100758.98
2018-04-23T20:14:22.595Z,100755.40
2018-04-23T20:16:51.749Z,100756.02
2018-04-23T20:19:20.906Z,100760.13
2018-04-23T20:21:50.025Z,100754.20
2018-04-23T20:24:19.203Z,100756.61
2018-04-23T20:26:48.318Z,100766.90
2018-04-23T20:29:17.487Z,100776.39
2018-04-23T20:31:46.623Z,100772.31
2018-04-23T20:34:15.750Z,100778.94
2018-04-23T20:36:44.921Z,100780.79
2018-04-23T20:39:14.118Z,100776.21
2018-04-23T20:41:43.277Z,100781.70
2018-04-23T20:44:12.429Z,100785.78
2018-04-23T20:46:41.641Z,100785.52
2018-04-23T20:49:10.763Z,100784.97
2018-04-23T20:51:40.650Z,100780.99
2018-04-23T20:54:09.776Z,100785.11
2018-04-23T20:56:38.953Z,100776.11
2018-04-23T20:59:08.088Z,100779.66
2018-04-23T21:01:37.994Z,100776.44
2018-04-23T21:04:07.134Z,100793.92
2018-04-23T21:06:36.272Z,100779.17
2018-04-23T21:09:06.935Z,100787.02
2018-04-23T21:11:36.921Z,100785.02
2018-04-23T21:14:05.978Z,100786.85
2018-04-23T21:16:35.130Z,100788.27
2018-04-23T21:19:05.044Z,100786.77
2018-04-23T21:21:34.211Z,100791.00
2018-04-23T21:24:04.068Z,100799.03
2018-04-23T21:26:33.219Z,100791.73
2018-04-23T21:29:02.369Z,100794.38
2018-04-23T21:31:31.497Z,100796.69
2018-04-23T21:34:00.629Z,100794.42
2018-04-23T21:36:29.742Z,100798.95
2018-04-23T21:38:59.609Z,100809.13
2018-04-23T21:41:28.801Z,100807.09
2018-04-23T21:43:57.944Z,100805.52
2018-04-23T21:46:27.077Z,100810.29
2018-04-23T21:48:56.217Z,100818.42
2018-04-23T21:51:26.083Z,100824.68
2018-04-23T21:53:55.236Z,100820.34
2018-04-23T21:56:24.357Z,100821.34
2018-04-23T21:58:53.563Z,100824.19
2018-04-23T22:01:22.706Z,100828.95
2018-04-23T22:03:51.807Z,100820.37
2018-04-23T22:06:21.707Z,100822.18
2018-04-23T22:08:50.831Z,100832.12
2018-04-23T22:11:20.728Z,100828.43
2018-04-23T22:13:50.673Z,100832.95
2018-04-23T22:16:19.796Z,100840.56
2018-04-23T22:18:48.956Z,100838.25
2018-04-23T22:21:18.062Z,100842.06
2018-04-23T22:23:47.218Z,100848.23
2018-04-23T22:26:17.110Z,100844.40
2018-04-23T22:28:46.244Z,100849.86
2018-04-23T22:31:15.370Z,100847.12
2018-04-23T22:33:44.488Z,100845.98
2018-04-23T22:36:14.346Z,100851.80
2018-04-23T22:38:43.473Z,100849.12
2018-04-23T22:41:14.599Z,100844.70
2018-04-23T22:43:43.729Z,100844.70
2018-04-23T22:46:12.853Z,100858.76
2018-04-23T22:48:41.990Z,100853.73
2018-04-23T22:51:11.122Z,100853.19
2018-04-23T22:53:40.341Z,100854.27
2018-04-23T22:56:10.254Z,100853.28
2018-04-23T22:58:40.120Z,100852.59
2018-04-23T23:01:09.223Z,100859.02
2018-04-23T23:03:38.377Z,100859.12
2018-04-23T23:06:07.476Z,100852.28
2018-04-23T23:08:36.610Z,100853.58
2018-04-23T23:11:05.751Z,100851.09
2018-04-23T23:13:34.872Z,100856.36
2018-04-23T23:16:03.977Z,100859.48
2018-04-23T23:18:33.105Z,100859.45
2018-04-23T23:21:02.981Z,100856.28
2018-04-23T23:23:32.145Z,100860.05
2018-04-23T23:26:01.249Z,100855.42
2018-04-23T23:28:30.375Z,100866.13
2018-04-23T23:30:59.519Z,100860.13
2018-04-23T23:33:28.610Z,100863.81
2018-04-23T23:35:57.733Z,100857.44
2018-04-23T23:38:26.842Z,100857.72
2018-04-23T23:40:55.972Z,100857.94
2018-04-23T23:43:25.853Z,100854.09
2018-04-23T23:45:54.988Z,100848.80
2018-04-23T23:48:24.863Z,100846.95
2018-04-23T23:50:54.012Z,100847.37
2018-04-23T23:53:23.110Z,100853.23
2018-04-23T23:55:52.257Z,100859.05
2018-04-23T23:58:22.215Z,100852.91
